sensor_id;sensor_type;location;lat;lon;timestamp;pressure;altitude;pressure_sealevel;temperature;humidity
35248;BME280;21380;52.194;20.520;2023-11-19T00:01:11;101170.13;;;14.20;59.80
35248;BME280;21380;52.194;20.520;2023-11-19T00:03:57;101174.41;;;14.19;59.65
35248;BME280;21380;52.194;20.520;2023-11-19T00:06:23;101171.78;;;14.18;59.76
35248;BME280;21380;52.194;20.520;2023-11-19T00:08:48;101154.44;;;14.17;59.86
35248;BME280;21380;52.194;20.520;2023-11-19T00:11:16;101151.03;;;14.18;59.72
35248;BME280;21380;52.194;20.520;2023-11-19T00:13:41;101157.06;;;14.18;59.78
35248;BME280;21380;52.194;20.520;2023-11-19T00:16:08;101129.06;;;14.09;59.54
35248;BME280;21380;52.194;20.520;2023-11-19T00:18:35;101154.56;;;14.20;59.78
35248;BME280;21380;52.194;20.520;2023-11-19T00:21:02;101144.06;;;14.17;59.64
35248;BME280;21380;52.194;20.520;2023-11-19T00:23:28;101156.16;;;14.16;59.42
35248;BME280;21380;52.194;20.520;2023-11-19T00:25:54;101167.41;;;14.17;59.75
35248;BME280;21380;52.194;20.520;2023-11-19T00:28:20;101159.63;;;14.17;59.57
35248;BME280;21380;52.194;20.520;2023-11-19T00:30:46;101143.13;;;14.15;59.84
35248;BME280;21380;52.194;20.520;2023-11-19T00:33:11;101136.22;;;14.15;59.40
35248;BME280;21380;52.194;20.520;2023-11-19T00:35:37;101123.28;;;14.17;59.72
35248;BME280;21380;52.194;20.520;2023-11-19T00:38:03;101110.28;;;14.15;59.59
35248;BME280;21380;52.194;20.520;2023-11-19T00:40:29;101112.03;;;14.16;59.64
35248;BME280;21380;52.194;20.520;2023-11-19T00:42:55;101105.09;;;14.15;59.87
35248;BME280;21380;52.194;20.520;2023-11-19T00:45:21;101091.84;;;14.07;59.58
35248;BME280;21380;52.194;20.520;2023-11-19T00:47:47;101097.25;;;14.14;59.57
35248;BME280;21380;52.194;20.520;2023-11-19T00:50:13;101100.72;;;14.14;59.70
35248;BME280;21380;52.194;20.520;2023-11-19T00:52:39;101093.84;;;14.15;59.60
35248;BME280;21380;52.194;20.520;2023-11-19T00:55:05;101093.84;;;14.15;59.77
35248;BME280;21380;52.194;20.520;2023-11-19T00:57:32;101089.53;;;14.15;60.01
35248;BME280;21380;52.194;20.520;2023-11-19T00:59:59;101086.91;;;14.15;59.61
35248;BME280;21380;52.194;20.520;2023-11-19T01:02:25;101077.31;;;14.13;59.97
35248;BME280;21380;52.194;20.520;2023-11-19T01:04:51;101076.50;;;14.14;59.63
35248;BME280;21380;52.194;20.520;2023-11-19T01:07:17;101077.41;;;14.16;59.85
35248;BME280;21380;52.194;20.520;2023-11-19T01:09:43;101066.94;;;14.13;59.94
35248;BME280;21380;52.194;20.520;2023-11-19T01:12:09;101067.88;;;14.15;59.99
35248;BME280;21380;52.194;20.520;2023-11-19T01:14:36;101067.13;;;14.17;59.93
35248;BME280;21380;52.194;20.520;2023-11-19T01:17:02;101066.25;;;14.18;59.59
35248;BME280;21380;52.194;20.520;2023-11-19T01:19:30;101058.47;;;14.18;59.54
35248;BME280;21380;52.194;20.520;2023-11-19T01:21:56;101061.16;;;14.20;59.70
35248;BME280;21380;52.194;20.520;2023-11-19T01:24:22;101057.66;;;14.19;59.70
35248;BME280;21380;52.194;20.520;2023-11-19T01:26:48;101061.19;;;14.21;59.70
35248;BME280;21380;52.194;20.520;2023-11-19T01:29:15;101056.88;;;14.22;59.57
35248;BME280;21380;52.194;20.520;2023-11-19T01:31:41;101055.19;;;14.22;60.00
35248;BME280;21380;52.194;20.520;2023-11-19T01:34:07;101055.22;;;14.24;59.58
35248;BME280;21380;52.194;20.520;2023-11-19T01:36:33;101046.56;;;14.23;59.95
35248;BME280;21380;52.194;20.520;2023-11-19T01:39:00;101045.72;;;14.24;59.98
35248;BME280;21380;52.194;20.520;2023-11-19T01:41:26;101043.22;;;14.26;60.02
35248;BME280;21380;52.194;20.520;2023-11-19T01:43:52;101040.53;;;14.24;59.54
35248;BME280;21380;52.194;20.520;2023-11-19T01:46:18;101035.41;;;14.26;59.79
35248;BME280;21380;52.194;20.520;2023-11-19T01:48:45;101028.50;;;14.26;59.59
35248;BME280;21380;52.194;20.520;2023-11-19T01:51:15;101026.84;;;14.29;59.87
35248;BME280;21380;52.194;20.520;2023-11-19T01:53:43;101026.78;;;14.27;59.62
35248;BME280;21380;52.194;20.520;2023-11-19T01:56:13;101031.16;;;14.28;59.50
35248;BME280;21380;52.194;20.520;2023-11-19T01:58:41;101023.34;;;14.28;59.60
35248;BME280;21380;52.194;20.520;2023-11-19T02:01:09;101017.38;;;14.31;59.33
35248;BME280;21380;52.194;20.520;2023-11-19T02:03:37;101008.75;;;14.30;59.88
35248;BME280;21380;52.194;20.520;2023-11-19T02:06:03;101001.81;;;14.31;59.39
35248;BME280;21380;52.194;20.520;2023-11-19T02:08:29;100998.41;;;14.32;59.47
35248;BME280;21380;52.194;20.520;2023-11-19T02:10:55;100990.53;;;14.29;59.86
35248;BME280;21380;52.194;20.520;2023-11-19T02:13:25;100996.63;;;14.31;59.83
35248;BME280;21380;52.194;20.520;2023-11-19T02:15:51;100995.63;;;14.27;59.44
35248;BME280;21380;52.194;20.520;2023-11-19T02:18:21;101001.00;;;14.32;59.40
35248;BME280;21380;52.194;20.520;2023-11-19T02:20:50;100994.03;;;14.31;59.52
35248;BME280;21380;52.194;20.520;2023-11-19T02:23:17;101006.31;;;14.35;59.66
35248;BME280;21380;52.194;20.520;2023-11-19T02:25:47;101001.16;;;14.36;59.47
35248;BME280;21380;52.194;20.520;2023-11-19T02:28:19;100987.94;;;14.29;59.56
35248;BME280;21380;52.194;20.520;2023-11-19T02:30:44;100992.47;;;14.36;59.46
35248;BME280;21380;52.194;20.520;2023-11-19T02:33:10;100983.81;;;14.35;59.37
35248;BME280;21380;52.194;20.520;2023-11-19T02:35:36;100984.75;;;14.37;59.62
35248;BME280;21380;52.194;20.520;2023-11-19T02:38:02;100970.63;;;14.29;59.33
35248;BME280;21380;52.194;20.520;2023-11-19T02:40:29;100976.03;;;14.35;59.42
35248;BME280;21380;52.194;20.520;2023-11-19T02:42:55;100970.09;;;14.39;59.53
35248;BME280;21380;52.194;20.520;2023-11-19T02:45:25;100967.50;;;14.39;59.35
35248;BME280;21380;52.194;20.520;2023-11-19T02:47:52;100956.31;;;14.40;59.28
35248;BME280;21380;52.194;20.520;2023-11-19T02:50:19;100957.13;;;14.39;59.48
35248;BME280;21380;52.194;20.520;2023-11-19T02:52:52;100950.25;;;14.40;59.74
35248;BME280;21380;52.194;20.520;2023-11-19T02:55:19;100935.34;;;14.34;59.31
35248;BME280;21380;52.194;20.520;2023-11-19T02:57:45;100944.94;;;14.37;59.34
35248;BME280;21380;52.194;20.520;2023-11-19T03:00:21;100930.19;;;14.36;59.50
35248;BME280;21380;52.194;20.520;2023-11-19T03:02:57;100916.44;;;14.38;59.76
35248;BME280;21380;52.194;20.520;2023-11-19T03:05:35;100924.28;;;14.40;59.71
35248;BME280;21380;52.194;20.520;2023-11-19T03:08:01;100932.97;;;14.42;59.63
35248;BME280;21380;52.194;20.520;2023-11-19T03:10:27;100918.19;;;14.39;59.41
35248;BME280;21380;52.194;20.520;2023-11-19T03:12:54;100917.41;;;14.42;59.45
35248;BME280;21380;52.194;20.520;2023-11-19T03:15:22;100913.94;;;14.41;59.50
35248;BME280;21380;52.194;20.520;2023-11-19T03:17:48;100908.78;;;14.43;59.65
35248;BME280;21380;52.194;20.520;2023-11-19T03:20:14;100894.91;;;14.41;59.35
35248;BME280;21380;52.194;20.520;2023-11-19T03:22:43;100888.81;;;14.40;59.44
35248;BME280;21380;52.194;20.520;2023-11-19T03:25:10;100886.25;;;14.42;59.49
35248;BME280;21380;52.194;20.520;2023-11-19T03:27:37;100870.59;;;14.39;59.38
35248;BME280;21380;52.194;20.520;2023-11-19T03:30:08;100874.19;;;14.42;59.26
35248;BME280;21380;52.194;20.520;2023-11-19T03:32:35;100875.00;;;14.41;59.10
35248;BME280;21380;52.194;20.520;2023-11-19T03:35:04;100865.56;;;14.43;59.22
35248;BME280;21380;52.194;20.520;2023-11-19T03:37:33;100860.69;;;14.27;59.74
35248;BME280;21380;52.194;20.520;2023-11-19T03:39:59;100856.69;;;14.37;59.48
35248;BME280;21380;52.194;20.520;2023-11-19T03:42:26;100860.09;;;14.36;59.35
35248;BME280;21380;52.194;20.520;2023-11-19T03:44:53;100869.84;;;14.43;59.50
35248;BME280;21380;52.194;20.520;2023-11-19T03:47:19;100862.91;;;14.42;59.52
35248;BME280;21380;52.194;20.520;2023-11-19T03:49:49;100849.09;;;14.43;59.40
35248;BME280;21380;52.194;20.520;2023-11-19T03:52:16;100846.50;;;14.43;59.39
35248;BME280;21380;52.194;20.520;2023-11-19T03:54:42;100837.81;;;14.41;59.35
35248;BME280;21380;52.194;20.520;2023-11-19T03:57:08;100832.63;;;14.41;59.35
35248;BME280;21380;52.194;20.520;2023-11-19T03:59:36;100830.97;;;14.44;59.45
35248;BME280;21380;52.194;20.520;2023-11-19T04:02:02;100836.16;;;14.44;59.19
35248;BME280;21380;52.194;20.520;2023-11-19T04:04:28;100831.81;;;14.43;59.14
35248;BME280;21380;52.194;20.520;2023-11-19T04:06:55;100821.47;;;14.45;59.20
35248;BME280;21380;52.194;20.520;2023-11-19T04:09:21;100815.38;;;14.44;59.28
35248;BME280;21380;52.194;20.520;2023-11-19T04:11:47;100809.19;;;14.39;59.27
35248;BME280;21380;52.194;20.520;2023-11-19T04:14:14;100813.66;;;14.43;59.16
35248;BME280;21380;52.194;20.520;2023-11-19T04:16:41;100798.88;;;14.41;59.29
35248;BME280;21380;52.194;20.520;2023-11-19T04:19:06;100790.16;;;14.39;59.36
35248;BME280;21380;52.194;20.520;2023-11-19T04:21:33;100801.53;;;14.44;59.33
35248;BME280;21380;52.194;20.520;2023-11-19T04:23:59;100792.97;;;14.47;59.60
35248;BME280;21380;52.194;20.520;2023-11-19T04:26:25;100798.16;;;14.47;59.39
35248;BME280;21380;52.194;20.520;2023-11-19T04:28:50;100785.91;;;14.41;59.15
35248;BME280;21380;52.194;20.520;2023-11-19T04:31:16;100779.72;;;14.37;59.58
35248;BME280;21380;52.194;20.520;2023-11-19T04:33:42;100788.59;;;14.46;59.10
35248;BME280;21380;52.194;20.520;2023-11-19T04:36:12;100790.34;;;14.45;59.09
35248;BME280;21380;52.194;20.520;2023-11-19T04:38:39;100779.91;;;14.43;59.25
35248;BME280;21380;52.194;20.520;2023-11-19T04:41:05;100772.19;;;14.47;59.64
35248;BME280;21380;52.194;20.520;2023-11-19T04:43:32;100766.06;;;14.44;59.39
35248;BME280;21380;52.194;20.520;2023-11-19T04:45:58;100761.81;;;14.47;59.33
35248;BME280;21380;52.194;20.520;2023-11-19T04:48:24;100754.03;;;14.47;59.05
35248;BME280;21380;52.194;20.520;2023-11-19T04:50:50;100758.41;;;14.48;59.51
35248;BME280;21380;52.194;20.520;2023-11-19T04:53:18;100757.56;;;14.49;59.33
35248;BME280;21380;52.194;20.520;2023-11-19T04:55:44;100754.00;;;14.45;59.40
35248;BME280;21380;52.194;20.520;2023-11-19T04:58:10;100765.34;;;14.49;59.23
35248;BME280;21380;52.194;20.520;2023-11-19T05:00:36;100762.69;;;14.47;59.34
35248;BME280;21380;52.194;20.520;2023-11-19T05:03:02;100762.69;;;14.47;59.50
35248;BME280;21380;52.194;20.520;2023-11-19T05:05:28;100757.56;;;14.49;59.54
35248;BME280;21380;52.194;20.520;2023-11-19T05:07:54;100748.06;;;14.49;59.40
35248;BME280;21380;52.194;20.520;2023-11-19T05:10:21;100729.72;;;14.44;59.03
35248;BME280;21380;52.194;20.520;2023-11-19T05:12:46;100735.06;;;14.49;59.07
35248;BME280;21380;52.194;20.520;2023-11-19T05:15:12;100735.06;;;14.49;59.15
35248;BME280;21380;52.194;20.520;2023-11-19T05:17:40;100729.06;;;14.50;59.51
35248;BME280;21380;52.194;20.520;2023-11-19T05:20:06;100719.47;;;14.48;59.25
35248;BME280;21380;52.194;20.520;2023-11-19T05:22:42;100725.59;;;14.50;59.32
35248;BME280;21380;52.194;20.520;2023-11-19T05:25:08;100706.19;;;14.38;59.20
35248;BME280;21380;52.194;20.520;2023-11-19T05:27:36;100721.16;;;14.47;59.51
35248;BME280;21380;52.194;20.520;2023-11-19T05:30:04;100723.84;;;14.50;58.98
35248;BME280;21380;52.194;20.520;2023-11-19T05:32:33;100718.63;;;14.49;59.25
35248;BME280;21380;52.194;20.520;2023-11-19T05:34:59;100708.09;;;14.44;59.32
35248;BME280;21380;52.194;20.520;2023-11-19T05:37:24;100723.00;;;14.50;59.08
35248;BME280;21380;52.194;20.520;2023-11-19T05:39:50;100716.06;;;14.50;59.07
35248;BME280;21380;52.194;20.520;2023-11-19T05:42:16;100704.84;;;14.51;59.32
35248;BME280;21380;52.194;20.520;2023-11-19T05:44:43;100693.50;;;14.48;58.82
35248;BME280;21380;52.194;20.520;2023-11-19T05:47:08;100684.69;;;14.42;59.47
35248;BME280;21380;52.194;20.520;2023-11-19T05:49:34;100701.38;;;14.51;59.08
35248;BME280;21380;52.194;20.520;2023-11-19T05:52:00;100694.44;;;14.50;59.10
35248;BME280;21380;52.194;20.520;2023-11-19T05:54:29;100691.84;;;14.50;58.93
35248;BME280;21380;52.194;20.520;2023-11-19T05:56:54;100689.25;;;14.50;59.17
35248;BME280;21380;52.194;20.520;2023-11-19T05:59:21;100684.88;;;14.49;58.99
35248;BME280;21380;52.194;20.520;2023-11-19T06:01:48;100685.78;;;14.51;59.22
35248;BME280;21380;52.194;20.520;2023-11-19T06:04:14;100688.38;;;14.51;59.34
35248;BME280;21380;52.194;20.520;2023-11-19T06:06:40;100685.84;;;14.52;59.37
35248;BME280;21380;52.194;20.520;2023-11-19T06:09:06;100689.19;;;14.48;58.91
35248;BME280;21380;52.194;20.520;2023-11-19T06:11:33;100690.16;;;14.52;59.24
35248;BME280;21380;52.194;20.520;2023-11-19T06:14:00;100683.19;;;14.51;59.29
35248;BME280;21380;52.194;20.520;2023-11-19T06:16:25;100678.00;;;14.51;59.28
35248;BME280;21380;52.194;20.520;2023-11-19T06:18:52;100675.47;;;14.52;59.04
35248;BME280;21380;52.194;20.520;2023-11-19T06:21:19;100660.69;;;14.50;59.01
35248;BME280;21380;52.194;20.520;2023-11-19T06:23:45;100667.69;;;14.52;59.15
35248;BME280;21380;52.194;20.520;2023-11-19T06:26:10;100665.94;;;14.53;59.20
35248;BME280;21380;52.194;20.520;2023-11-19T06:28:36;100653.91;;;14.55;58.97
35248;BME280;21380;52.194;20.520;2023-11-19T06:31:03;100646.06;;;14.53;59.32
35248;BME280;21380;52.194;20.520;2023-11-19T06:33:29;100646.16;;;14.56;59.12
35248;BME280;21380;52.194;20.520;2023-11-19T06:35:55;100649.59;;;14.55;59.22
35248;BME280;21380;52.194;20.520;2023-11-19T06:38:21;100645.25;;;14.56;59.08
35248;BME280;21380;52.194;20.520;2023-11-19T06:40:47;100647.03;;;14.57;59.24
35248;BME280;21380;52.194;20.520;2023-11-19T06:43:13;100652.28;;;14.58;59.14
35248;BME280;21380;52.194;20.520;2023-11-19T06:45:39;100648.78;;;14.58;59.30
35248;BME280;21380;52.194;20.520;2023-11-19T06:48:05;100648.78;;;14.58;58.91
35248;BME280;21380;52.194;20.520;2023-11-19T06:50:32;100642.75;;;14.59;59.04
35248;BME280;21380;52.194;20.520;2023-11-19T06:52:58;100628.94;;;14.60;58.98
35248;BME280;21380;52.194;20.520;2023-11-19T06:55:26;100622.78;;;14.56;59.16
35248;BME280;21380;52.194;20.520;2023-11-19T06:57:52;100622.81;;;14.58;59.32
35248;BME280;21380;52.194;20.520;2023-11-19T07:00:18;100616.81;;;14.59;58.97
35248;BME280;21380;52.194;20.520;2023-11-19T07:02:44;100599.25;;;14.50;59.16
35248;BME280;21380;52.194;20.520;2023-11-19T07:05:10;100603.81;;;14.59;58.97
35248;BME280;21380;52.194;20.520;2023-11-19T07:07:37;100606.41;;;14.59;58.99
35248;BME280;21380;52.194;20.520;2023-11-19T07:10:04;100605.56;;;14.58;59.30
35248;BME280;21380;52.194;20.520;2023-11-19T07:12:31;100602.16;;;14.61;59.04
35248;BME280;21380;52.194;20.520;2023-11-19T07:14:57;100600.44;;;14.62;59.18
35248;BME280;21380;52.194;20.520;2023-11-19T07:17:23;100592.50;;;14.57;58.84
35248;BME280;21380;52.194;20.520;2023-11-19T07:19:49;100601.25;;;14.60;59.12
35248;BME280;21380;52.194;20.520;2023-11-19T07:22:19;100597.84;;;14.63;59.04
35248;BME280;21380;52.194;20.520;2023-11-19T07:24:47;100591.44;;;14.49;59.62
35248;BME280;21380;52.194;20.520;2023-11-19T07:27:13;100575.03;;;14.50;59.46
35248;BME280;21380;52.194;20.520;2023-11-19T07:29:39;100582.09;;;14.55;59.25
35248;BME280;21380;52.194;20.520;2023-11-19T07:32:05;100584.00;;;14.63;58.98
35248;BME280;21380;52.194;20.520;2023-11-19T07:34:31;100574.50;;;14.63;59.08
35248;BME280;21380;52.194;20.520;2023-11-19T07:36:57;100569.31;;;14.63;59.24
35248;BME280;21380;52.194;20.520;2023-11-19T07:39:25;100575.47;;;14.65;59.09
35248;BME280;21380;52.194;20.520;2023-11-19T07:41:51;100577.16;;;14.65;59.25
35248;BME280;21380;52.194;20.520;2023-11-19T07:44:18;100566.78;;;14.65;58.99
35248;BME280;21380;52.194;20.520;2023-11-19T07:46:47;100569.44;;;14.66;59.28
35248;BME280;21380;52.194;20.520;2023-11-19T07:49:13;100567.69;;;14.67;59.13
35248;BME280;21380;52.194;20.520;2023-11-19T07:51:40;100571.19;;;14.67;59.00
35248;BME280;21380;52.194;20.520;2023-11-19T07:54:06;100566.00;;;14.67;58.90
35248;BME280;21380;52.194;20.520;2023-11-19T07:56:33;100551.19;;;14.65;59.03
35248;BME280;21380;52.194;20.520;2023-11-19T07:59:00;100542.47;;;14.63;59.31
35248;BME280;21380;52.194;20.520;2023-11-19T08:01:26;100543.50;;;14.68;58.89
35248;BME280;21380;52.194;20.520;2023-11-19T08:03:52;100534.88;;;14.69;59.22
35248;BME280;21380;52.194;20.520;2023-11-19T08:06:18;100541.84;;;14.70;59.03
35248;BME280;21380;52.194;20.520;2023-11-19T08:08:44;100535.78;;;14.71;58.72
35248;BME280;21380;52.194;20.520;2023-11-19T08:11:10;100537.53;;;14.72;59.25
35248;BME280;21380;52.194;20.520;2023-11-19T08:13:36;100529.66;;;14.67;58.84
35248;BME280;21380;52.194;20.520;2023-11-19T08:16:02;100529.72;;;14.70;58.79
35248;BME280;21380;52.194;20.520;2023-11-19T08:18:28;100520.19;;;14.71;58.81
35248;BME280;21380;52.194;20.520;2023-11-19T08:20:54;100528.03;;;14.72;59.05
35248;BME280;21380;52.194;20.520;2023-11-19T08:23:22;100514.13;;;14.70;59.05
35248;BME280;21380;52.194;20.520;2023-11-19T08:25:49;100508.75;;;14.64;59.00
35248;BME280;21380;52.194;20.520;2023-11-19T08:28:15;100516.75;;;14.72;58.83
35248;BME280;21380;52.194;20.520;2023-11-19T08:30:41;100516.75;;;14.72;59.28
35248;BME280;21380;52.194;20.520;2023-11-19T08:33:07;100517.66;;;14.72;58.93
35248;BME280;21380;52.194;20.520;2023-11-19T08:35:33;100508.97;;;14.72;58.83
35248;BME280;21380;52.194;20.520;2023-11-19T08:38:03;100508.09;;;14.71;58.68
35248;BME280;21380;52.194;20.520;2023-11-19T08:40:38;100512.50;;;14.74;58.65
35248;BME280;21380;52.194;20.520;2023-11-19T08:43:09;100496.09;;;14.75;58.98
35248;BME280;21380;52.194;20.520;2023-11-19T08:45:40;100498.69;;;14.75;58.88
35248;BME280;21380;52.194;20.520;2023-11-19T08:48:07;100483.97;;;14.75;59.05
35248;BME280;21380;52.194;20.520;2023-11-19T08:50:32;100479.59;;;14.74;58.86
35248;BME280;21380;52.194;20.520;2023-11-19T08:53:00;100471.00;;;14.77;58.55
35248;BME280;21380;52.194;20.520;2023-11-19T08:55:28;100467.53;;;14.75;59.12
35248;BME280;21380;52.194;20.520;2023-11-19T08:57:54;100464.97;;;14.78;58.88
35248;BME280;21380;52.194;20.520;2023-11-19T09:00:20;100462.41;;;14.80;58.83
35248;BME280;21380;52.194;20.520;2023-11-19T09:02:46;100457.22;;;14.80;58.59
35248;BME280;21380;52.194;20.520;2023-11-19T09:05:12;100458.13;;;14.80;59.10
35248;BME280;21380;52.194;20.520;2023-11-19T09:07:39;100445.09;;;14.79;58.75
35248;BME280;21380;52.194;20.520;2023-11-19T09:10:05;100440.63;;;14.73;58.93
35248;BME280;21380;52.194;20.520;2023-11-19T09:12:31;100447.72;;;14.80;58.75
35248;BME280;21380;52.194;20.520;2023-11-19T09:14:57;100440.81;;;14.81;59.00
35248;BME280;21380;52.194;20.520;2023-11-19T09:17:23;100437.31;;;14.79;58.80
35248;BME280;21380;52.194;20.520;2023-11-19T09:19:49;100433.00;;;14.81;58.94
35248;BME280;21380;52.194;20.520;2023-11-19T09:22:15;100437.38;;;14.82;58.84
35248;BME280;21380;52.194;20.520;2023-11-19T09:24:41;100431.25;;;14.80;58.81
35248;BME280;21380;52.194;20.520;2023-11-19T09:27:09;100433.00;;;14.81;58.74
35248;BME280;21380;52.194;20.520;2023-11-19T09:29:36;100420.84;;;14.78;58.98
35248;BME280;21380;52.194;20.520;2023-11-19T09:32:02;100422.75;;;14.87;59.19
35248;BME280;21380;52.194;20.520;2023-11-19T09:34:28;100422.72;;;14.85;58.84
35248;BME280;21380;52.194;20.520;2023-11-19T09:36:54;100403.59;;;14.82;59.28
35248;BME280;21380;52.194;20.520;2023-11-19T09:39:20;100416.69;;;14.86;58.75
35248;BME280;21380;52.194;20.520;2023-11-19T09:41:47;100408.88;;;14.85;59.25
35248;BME280;21380;52.194;20.520;2023-11-19T09:44:13;100403.69;;;14.85;59.01
35248;BME280;21380;52.194;20.520;2023-11-19T09:46:41;100405.41;;;14.84;58.68
35248;BME280;21380;52.194;20.520;2023-11-19T09:49:08;100397.59;;;14.84;59.10
35248;BME280;21380;52.194;20.520;2023-11-19T09:51:35;100389.84;;;14.86;58.89
35248;BME280;21380;52.194;20.520;2023-11-19T09:54:02;100388.88;;;14.82;58.79
35248;BME280;21380;52.194;20.520;2023-11-19T09:56:29;100378.56;;;14.84;59.17
35248;BME280;21380;52.194;20.520;2023-11-19T09:58:55;100373.38;;;14.84;59.19
35248;BME280;21380;52.194;20.520;2023-11-19T10:01:21;100369.00;;;14.83;59.14
35248;BME280;21380;52.194;20.520;2023-11-19T10:03:47;100358.50;;;14.78;59.19
35248;BME280;21380;52.194;20.520;2023-11-19T10:06:15;100361.22;;;14.83;59.33
35248;BME280;21380;52.194;20.520;2023-11-19T10:08:42;100357.78;;;14.84;59.04
35248;BME280;21380;52.194;20.520;2023-11-19T10:11:08;100360.38;;;14.84;59.00
35248;BME280;21380;52.194;20.520;2023-11-19T10:13:37;100364.75;;;14.85;58.92
35248;BME280;21380;52.194;20.520;2023-11-19T10:16:12;100356.94;;;14.85;58.88
35248;BME280;21380;52.194;20.520;2023-11-19T10:18:48;100347.41;;;14.85;58.98
35248;BME280;21380;52.194;20.520;2023-11-19T10:21:19;100327.38;;;14.80;58.72
35248;BME280;21380;52.194;20.520;2023-11-19T10:23:59;100346.59;;;14.88;59.12
35248;BME280;21380;52.194;20.520;2023-11-19T10:26:27;100336.94;;;14.82;59.11
35248;BME280;21380;52.194;20.520;2023-11-19T10:28:53;100335.34;;;14.87;58.88
35248;BME280;21380;52.194;20.520;2023-11-19T10:31:21;100315.31;;;14.82;58.99
35248;BME280;21380;52.194;20.520;2023-11-19T10:33:51;100309.31;;;14.86;59.11
35248;BME280;21380;52.194;20.520;2023-11-19T10:36:17;100296.41;;;14.87;58.75
35248;BME280;21380;52.194;20.520;2023-11-19T10:38:53;100295.53;;;14.88;58.68
35248;BME280;21380;52.194;20.520;2023-11-19T10:41:32;100285.13;;;14.87;58.70
35248;BME280;21380;52.194;20.520;2023-11-19T10:43:59;100273.88;;;14.88;58.64
35248;BME280;21380;52.194;20.520;2023-11-19T10:46:41;100281.66;;;14.86;58.89
35248;BME280;21380;52.194;20.520;2023-11-19T10:49:09;100273.88;;;14.88;59.00
35248;BME280;21380;52.194;20.520;2023-11-19T10:51:36;100257.38;;;14.84;59.20
35248;BME280;21380;52.194;20.520;2023-11-19T10:54:07;100264.34;;;14.88;58.70
35248;BME280;21380;52.194;20.520;2023-11-19T10:56:34;100252.28;;;14.90;59.09
35248;BME280;21380;52.194;20.520;2023-11-19T10:59:01;100252.31;;;14.92;58.98
35248;BME280;21380;52.194;20.520;2023-11-19T11:01:39;100243.72;;;14.95;58.74
35248;BME280;21380;52.194;20.520;2023-11-19T11:04:13;100227.25;;;14.94;58.75
35248;BME280;21380;52.194;20.520;2023-11-19T11:06:41;100221.16;;;14.92;58.59
35248;BME280;21380;52.194;20.520;2023-11-19T11:09:08;100222.06;;;14.94;59.02
35248;BME280;21380;52.194;20.520;2023-11-19T11:11:39;100220.31;;;14.93;58.82
35248;BME280;21380;52.194;20.520;2023-11-19T11:14:07;100208.22;;;14.94;58.89
35248;BME280;21380;52.194;20.520;2023-11-19T11:16:34;100191.69;;;14.90;59.03
35248;BME280;21380;52.194;20.520;2023-11-19T11:19:01;100189.16;;;14.95;59.00
35248;BME280;21380;52.194;20.520;2023-11-19T11:21:28;100189.22;;;14.96;58.87
35248;BME280;21380;52.194;20.520;2023-11-19T11:30:31;100181.94;;;14.80;59.13
35248;BME280;21380;52.194;20.520;2023-11-19T11:33:06;100172.63;;;14.89;59.21
35248;BME280;21380;52.194;20.520;2023-11-19T11:35:49;100164.94;;;14.94;58.63
35248;BME280;21380;52.194;20.520;2023-11-19T11:38:22;100158.88;;;14.95;59.31
35248;BME280;21380;52.194;20.520;2023-11-19T11:41:16;100160.59;;;14.95;59.19
35248;BME280;21380;52.194;20.520;2023-11-19T11:43:48;100158.94;;;14.98;59.07
35248;BME280;21380;52.194;20.520;2023-11-19T11:49:03;100143.34;;;14.98;58.77
35248;BME280;21380;52.194;20.520;2023-11-19T11:52:08;100132.84;;;14.92;58.82
35248;BME280;21380;52.194;20.520;2023-11-19T11:54:40;100119.94;;;14.97;58.95
35248;BME280;21380;52.194;20.520;2023-11-19T11:57:13;100118.31;;;15.02;58.82
35248;BME280;21380;52.194;20.520;2023-11-19T12:02:08;100115.69;;;15.02;58.51
35248;BME280;21380;52.194;20.520;2023-11-19T12:04:35;100097.41;;;14.94;58.99
35248;BME280;21380;52.194;20.520;2023-11-19T12:07:21;100109.66;;;15.01;58.83
35248;BME280;21380;52.194;20.520;2023-11-19T12:09:52;100106.25;;;15.05;58.68
35248;BME280;21380;52.194;20.520;2023-11-19T12:12:23;100097.59;;;15.05;59.01
35248;BME280;21380;52.194;20.520;2023-11-19T12:15:04;100099.28;;;15.04;58.90
35248;BME280;21380;52.194;20.520;2023-11-19T12:20:05;100098.44;;;15.04;58.90
35248;BME280;21380;52.194;20.520;2023-11-19T12:22:38;100086.19;;;14.98;58.58
35248;BME280;21380;52.194;20.520;2023-11-19T12:25:06;100094.09;;;15.04;58.80
35248;BME280;21380;52.194;20.520;2023-11-19T12:27:34;100097.53;;;15.03;58.95
35248;BME280;21380;52.194;20.520;2023-11-19T12:30:00;100095.84;;;15.04;58.94
35248;BME280;21380;52.194;20.520;2023-11-19T12:32:40;100098.44;;;15.04;59.08
35248;BME280;21380;52.194;20.520;2023-11-19T12:35:07;100088.03;;;15.04;58.94
35248;BME280;21380;52.194;20.520;2023-11-19T12:37:43;100086.31;;;15.04;58.96
35248;BME280;21380;52.194;20.520;2023-11-19T12:40:21;100075.75;;;14.94;59.06
35248;BME280;21380;52.194;20.520;2023-11-19T12:42:52;100075.91;;;15.04;58.71
35248;BME280;21380;52.194;20.520;2023-11-19T12:45:19;100070.69;;;15.03;58.71
35248;BME280;21380;52.194;20.520;2023-11-19T12:47:47;100062.94;;;15.04;58.79
35248;BME280;21380;52.194;20.520;2023-11-19T12:50:13;100049.91;;;15.03;59.15
35248;BME280;21380;52.194;20.520;2023-11-19T12:52:40;100046.41;;;15.01;58.82
35248;BME280;21380;52.194;20.520;2023-11-19T12:55:25;100051.66;;;15.02;59.04
35248;BME280;21380;52.194;20.520;2023-11-19T12:57:54;100033.41;;;14.99;58.94